createdAt,value
2022-11-01T00:01:36.216Z,100796.75
2022-11-01T00:04:05.774Z,100794.03
2022-11-01T00:06:33.479Z,100794.84
2022-11-01T00:09:01.226Z,100786.47
2022-11-01T00:11:29.084Z,100780.47
2022-11-01T00:13:56.786Z,100792.44
2022-11-01T00:16:24.746Z,100789.72
2022-11-01T00:18:52.544Z,100781.59
2022-11-01T00:21:22.071Z,100778.06
2022-11-01T00:23:49.859Z,100784.63
2022-11-01T00:26:19.463Z,100781.09
2022-11-01T00:28:47.463Z,100783.78
2022-11-01T00:31:16.558Z,100777.56
2022-11-01T00:33:44.592Z,100782.16
2022-11-01T00:36:12.788Z,100778.38
2022-11-01T00:38:41.966Z,100788.41
2022-11-01T00:41:09.825Z,100781.91
2022-11-01T00:43:37.693Z,100787.31
2022-11-01T00:46:05.699Z,100783.53
2022-11-01T00:48:33.400Z,100783.53
2022-11-01T00:51:01.312Z,100783.53
2022-11-01T00:53:28.972Z,100777.84
2022-11-01T00:56:02.604Z,100778.69
2022-11-01T00:58:30.507Z,100773.25
2022-11-01T01:00:58.244Z,100769.72
2022-11-01T01:03:26.136Z,100766.19
2022-11-01T01:05:55.084Z,100767.03
2022-11-01T01:08:23.587Z,100765.94
2022-11-01T01:10:51.798Z,100762.69
2022-11-01T01:13:22.090Z,100764.06
2022-11-01T01:15:49.878Z,100760.25
2022-11-01T01:18:18.050Z,100758.44
2022-11-01T01:20:46.082Z,100762.00
2022-11-01T01:23:13.816Z,100758.72
2022-11-01T01:25:42.244Z,100754.06
2022-11-01T01:28:10.257Z,100764.34
2022-11-01T01:30:42.411Z,100755.41
2022-11-01T01:35:42.951Z,100768.13
2022-11-01T01:38:10.594Z,100773.56
2022-11-01T01:40:38.262Z,100766.50
2022-11-01T01:43:05.961Z,100757.03
2022-11-01T01:45:37.430Z,100756.22
2022-11-01T01:48:13.237Z,100763.53
2022-11-01T01:50:45.869Z,100751.06
2022-11-01T01:53:18.771Z,100752.44
2022-11-01T01:55:51.661Z,100757.84
2022-11-01T01:58:23.517Z,100761.38
2022-11-01T02:00:51.922Z,100759.22
2022-11-01T02:03:23.626Z,100760.03
2022-11-01T02:05:55.949Z,100759.22
2022-11-01T02:08:28.232Z,100751.09
2022-11-01T02:10:57.995Z,100763.56
2022-11-01T02:13:25.672Z,100761.94
2022-11-01T02:16:16.140Z,100761.69
2022-11-01T02:18:49.137Z,100763.56
2022-11-01T02:21:52.265Z,100767.09
2022-11-01T02:25:03.655Z,100770.06
2022-11-01T02:27:43.207Z,100757.88
2022-11-01T02:30:16.967Z,100757.06
2022-11-01T02:33:12.196Z,100754.34
2022-11-01T02:35:56.625Z,100754.34
2022-11-01T02:38:29.362Z,100760.84
2022-11-01T02:41:04.640Z,100752.50
2022-11-01T02:43:47.912Z,100765.50
2022-11-01T02:46:34.864Z,100763.88
2022-11-01T02:49:04.906Z,100775.78
2022-11-01T02:51:35.075Z,100774.97
2022-11-01T02:54:06.601Z,100772.00
2022-11-01T02:56:34.485Z,100771.19
2022-11-01T02:59:02.713Z,100783.09
2022-11-01T03:01:34.473Z,100776.88
2022-11-01T03:04:04.358Z,100782.28
2022-11-01T03:06:36.654Z,100781.22
2022-11-01T03:09:08.148Z,100790.41
2022-11-01T03:11:47.434Z,100796.41
2022-11-01T03:14:25.224Z,100794.75
2022-11-01T03:17:00.384Z,100798.28
2022-11-01T03:19:38.886Z,100802.63
2022-11-01T03:22:12.095Z,100808.06
2022-11-01T03:24:46.913Z,100808.88
2022-11-01T03:27:20.677Z,100810.78
2022-11-01T03:29:56.777Z,100818.09
2022-11-01T03:32:28.695Z,100815.97
2022-11-01T03:35:00.511Z,100841.50
2022-11-01T03:37:30.744Z,100843.59
2022-11-01T03:40:03.711Z,100855.78
2022-11-01T03:42:33.397Z,100864.47
2022-11-01T03:45:07.615Z,100869.34
2022-11-01T03:47:36.503Z,100866.06
2022-11-01T03:50:18.330Z,100861.16
2022-11-01T03:52:46.734Z,100866.84
2022-11-01T03:55:20.785Z,100867.66
2022-11-01T03:57:49.850Z,100873.34
2022-11-01T04:00:19.387Z,100887.69
2022-11-01T04:02:47.069Z,100894.44
2022-11-01T04:05:16.350Z,100903.66
2022-11-01T04:07:44.732Z,100909.66
2022-11-01T04:10:13.582Z,100910.72
2022-11-01T04:12:41.663Z,100909.91
2022-11-01T04:15:28.208Z,100922.06
2022-11-01T04:18:24.713Z,100935.63
2022-11-01T04:20:54.297Z,100945.97
2022-11-01T04:23:22.105Z,100941.88
2022-11-01T04:25:49.758Z,100955.41
2022-11-01T04:28:17.423Z,100955.66
2022-11-01T04:30:45.089Z,100958.38
2022-11-01T04:33:12.726Z,100965.13
2022-11-01T04:35:40.430Z,100971.06
2022-11-01T04:38:11.655Z,100977.53
2022-11-01T04:40:39.532Z,100982.97
2022-11-01T04:43:07.191Z,100989.00
2022-11-01T04:45:34.927Z,100997.91
2022-11-01T04:48:04.410Z,100996.78
2022-11-01T04:50:32.300Z,101008.69
2022-11-01T04:53:00.661Z,101002.44
2022-11-01T04:55:30.030Z,101013.53
2022-11-01T04:57:57.959Z,101015.44
2022-11-01T05:00:26.639Z,101039.25
2022-11-01T05:03:01.577Z,101042.22
2022-11-01T05:05:29.762Z,101044.09
2022-11-01T05:10:36.562Z,101064.13
2022-11-01T05:13:04.899Z,101077.94
2022-11-01T05:15:33.132Z,101065.47
2022-11-01T05:18:01.887Z,101076.28
2022-11-01T05:20:30.540Z,101078.19
2022-11-01T05:23:00.397Z,101077.63
2022-11-01T05:25:30.499Z,101077.28
2022-11-01T05:28:05.055Z,101078.69
2022-11-01T05:30:32.919Z,101089.16
2022-11-01T05:33:01.547Z,101090.91
2022-11-01T05:35:30.458Z,101089.53
2022-11-01T05:37:58.723Z,101084.59
2022-11-01T05:40:26.596Z,101101.25
2022-11-01T05:42:54.421Z,101091.97
2022-11-01T05:45:23.413Z,101103.94
2022-11-01T05:47:51.083Z,101096.47
2022-11-01T05:50:18.915Z,101108.88
2022-11-01T05:52:46.587Z,101103.66
2022-11-01T05:55:14.301Z,101115.63
2022-11-01T05:57:42.018Z,101116.19
2022-11-01T06:00:10.876Z,101124.50
2022-11-01T06:02:40.075Z,101132.13
2022-11-01T06:05:08.788Z,101129.50
2022-11-01T06:07:37.416Z,101137.81
2022-11-01T06:10:06.361Z,101125.31
2022-11-01T06:12:34.022Z,101141.22
2022-11-01T06:15:01.757Z,101134.31
2022-11-01T06:17:29.380Z,101156.41
2022-11-01T06:19:58.391Z,101156.84
2022-11-01T06:22:26.126Z,101162.69
2022-11-01T06:24:53.798Z,101167.53
2022-11-01T06:27:21.506Z,101167.47
2022-11-01T06:29:49.217Z,101167.94
2022-11-01T06:32:16.837Z,101172.94
2022-11-01T06:34:45.091Z,101176.06
2022-11-01T06:37:14.207Z,101183.22
2022-11-01T06:39:41.865Z,101182.16
2022-11-01T06:42:10.246Z,101191.34
2022-11-01T06:44:37.948Z,101183.97
2022-11-01T06:47:05.617Z,101189.63
2022-11-01T06:49:33.315Z,101207.44
2022-11-01T06:52:01.092Z,101205.22
2022-11-01T06:54:30.135Z,101207.03
2022-11-01T06:56:57.961Z,101214.25
2022-11-01T06:59:25.758Z,101222.28
2022-11-01T07:01:53.794Z,101213.81
2022-11-01T07:04:22.213Z,101221.13
2022-11-01T07:06:50.038Z,101230.56
2022-11-01T07:09:17.736Z,101231.63
2022-11-01T07:11:46.779Z,101231.06
2022-11-01T07:14:14.707Z,101247.00
2022-11-01T07:16:42.378Z,101257.00
2022-11-01T07:19:10.180Z,101262.81
2022-11-01T07:21:38.166Z,101268.16
2022-11-01T07:24:06.647Z,101268.63
2022-11-01T07:26:34.330Z,101274.31
2022-11-01T07:29:03.589Z,101280.78
2022-11-01T07:31:33.264Z,101282.09
2022-11-01T07:34:00.952Z,101293.13
2022-11-01T07:36:28.664Z,101288.66
2022-11-01T07:38:56.364Z,101294.25
2022-11-01T07:41:24.068Z,101298.03
2022-11-01T07:43:51.708Z,101297.38
2022-11-01T07:46:20.717Z,101295.00
2022-11-01T07:48:48.400Z,101301.97
2022-11-01T07:51:16.041Z,101300.81
2022-11-01T07:53:43.769Z,101310.00
2022-11-01T07:56:11.468Z,101320.81
2022-11-01T07:58:43.305Z,101324.59
2022-11-01T08:01:11.441Z,101312.94
2022-11-01T08:03:40.832Z,101312.00
2022-11-01T08:06:09.116Z,101327.34
2022-11-01T08:08:38.064Z,101334.31
2022-11-01T08:11:06.212Z,101330.34
2022-11-01T08:13:34.170Z,101344.78
2022-11-01T08:16:03.182Z,101336.69
2022-11-01T08:18:30.993Z,101348.09
2022-11-01T08:21:00.572Z,101348.25
2022-11-01T08:23:28.324Z,101348.81
2022-11-01T08:25:58.028Z,101350.22
2022-11-01T08:28:28.477Z,101352.59
2022-11-01T08:30:56.138Z,101359.19
2022-11-01T08:33:23.908Z,101356.22
2022-11-01T08:35:51.621Z,101368.28
2022-11-01T08:38:20.680Z,101374.16
2022-11-01T08:40:49.038Z,101375.47
2022-11-01T08:43:16.759Z,101366.56
2022-11-01T08:45:44.612Z,101369.28
2022-11-01T08:48:12.324Z,101379.22
2022-11-01T08:50:40.371Z,101385.78
2022-11-01T08:53:09.686Z,101375.53
2022-11-01T08:55:39.022Z,101386.56
2022-11-01T08:58:07.363Z,101379.06
2022-11-01T09:00:35.118Z,101380.59
2022-11-01T09:03:02.804Z,101384.75
2022-11-01T09:05:31.507Z,101392.31
2022-11-01T09:08:00.287Z,101396.31
2022-11-01T09:10:29.176Z,101397.13
2022-11-01T09:12:58.489Z,101401.72
2022-11-01T09:15:26.343Z,101397.44
2022-11-01T09:17:54.282Z,101400.94
2022-11-01T09:20:22.085Z,101404.25
2022-11-01T09:22:52.311Z,101399.81
2022-11-01T09:25:20.136Z,101412.97
2022-11-01T09:27:47.785Z,101402.97
2022-11-01T09:30:17.209Z,101406.06
2022-11-01T09:32:44.915Z,101407.66
2022-11-01T09:35:12.603Z,101400.84
2022-11-01T09:37:40.277Z,101404.03
2022-11-01T09:40:10.430Z,101420.19
2022-11-01T09:42:42.557Z,101421.72
2022-11-01T09:45:17.873Z,101433.47
2022-11-01T09:47:48.893Z,101425.13
2022-11-01T09:50:22.455Z,101442.28
2022-11-01T09:52:50.798Z,101448.28
2022-11-01T09:55:24.021Z,101440.84
2022-11-01T09:57:58.994Z,101447.47
2022-11-01T10:00:35.889Z,101456.44
2022-11-01T10:03:30.077Z,101453.91
2022-11-01T10:06:07.850Z,101464.69
2022-11-01T10:08:44.011Z,101459.81
2022-11-01T10:11:26.296Z,101467.03
2022-11-01T10:14:01.029Z,101463.25
2022-11-01T10:16:36.307Z,101475.88
2022-11-01T10:19:06.157Z,101478.00
2022-11-01T10:21:42.952Z,101478.47
2022-11-01T10:24:21.921Z,101474.19
2022-11-01T10:26:55.189Z,101467.19
2022-11-01T10:29:28.839Z,101472.81
2022-11-01T10:31:59.571Z,101480.41
2022-11-01T10:34:34.934Z,101483.66
2022-11-01T10:37:15.485Z,101468.06
2022-11-01T10:39:55.497Z,101477.91
2022-11-01T10:42:24.699Z,101483.41
2022-11-01T10:44:55.698Z,101476.25
2022-11-01T10:47:26.144Z,101486.59
2022-11-01T10:50:06.967Z,101479.34
2022-11-01T10:52:46.019Z,101478.34
2022-11-01T10:55:19.119Z,101476.69
2022-11-01T10:57:52.209Z,101480.59
2022-11-01T11:00:21.829Z,101474.22
2022-11-01T11:02:55.318Z,101469.19
2022-11-01T11:05:25.227Z,101468.84
2022-11-01T11:07:53.031Z,101475.91
2022-11-01T11:10:24.903Z,101481.16
2022-11-01T11:12:56.950Z,101481.03
2022-11-01T11:15:35.587Z,101456.09
2022-11-01T11:18:09.746Z,101475.00
2022-11-01T11:20:37.904Z,101466.03
2022-11-01T11:23:12.915Z,101470.25
2022-11-01T11:25:42.938Z,101479.84
2022-11-01T11:28:21.909Z,101476.69
2022-11-01T11:30:49.638Z,101471.59
2022-11-01T11:33:20.107Z,101467.53
2022-11-01T11:35:56.327Z,101461.19
2022-11-01T11:38:42.905Z,101470.06
2022-11-01T11:41:12.276Z,101461.91
2022-11-01T11:43:41.818Z,101453.22
2022-11-01T11:46:19.109Z,101470.28
2022-11-01T11:48:53.102Z,101467.34
2022-11-01T11:51:21.777Z,101470.88
2022-11-01T11:54:17.525Z,101471.22
2022-11-01T11:56:46.145Z,101473.94
2022-11-01T11:59:22.308Z,101491.25
2022-11-01T12:01:50.138Z,101476.41
2022-11-01T12:04:21.253Z,101470.97
2022-11-01T12:06:49.111Z,101472.97
2022-11-01T12:09:43.039Z,101478.00
2022-11-01T12:12:18.223Z,101470.44
2022-11-01T12:14:46.094Z,101466.31
2022-11-01T12:17:33.141Z,101465.75
2022-11-01T12:20:11.346Z,101468.44
2022-11-01T12:22:42.417Z,101466.56
2022-11-01T12:25:17.066Z,101473.22
2022-11-01T12:27:52.516Z,101466.34
2022-11-01T12:30:22.550Z,101461.00
2022-11-01T12:32:53.414Z,101465.19
2022-11-01T12:35:29.975Z,101451.97
2022-11-01T12:38:11.886Z,101463.31
2022-11-01T12:40:43.349Z,101452.22
2022-11-01T12:43:16.187Z,101449.75
2022-11-01T12:45:51.116Z,101448.84
2022-11-01T12:48:28.150Z,101452.13
2022-11-01T12:51:01.289Z,101450.97
2022-11-01T12:53:35.090Z,101440.69
2022-11-01T12:56:02.827Z,101433.56
2022-11-01T12:58:33.617Z,101435.44
2022-11-01T13:01:20.681Z,101444.97
2022-11-01T13:03:56.733Z,101445.06
2022-11-01T13:06:47.340Z,101448.03
2022-11-01T13:09:23.929Z,101431.00
2022-11-01T13:11:55.177Z,101441.53
2022-11-01T13:14:38.465Z,101431.25
2022-11-01T13:17:12.456Z,101434.97
2022-11-01T13:19:48.322Z,101435.47
2022-11-01T13:22:22.684Z,101441.72
2022-11-01T13:24:58.191Z,101419.75
2022-11-01T13:27:30.888Z,101437.69
2022-11-01T13:30:03.111Z,101428.97
2022-11-01T13:32:36.835Z,101423.88
2022-11-01T13:35:33.278Z,101419.72
2022-11-01T13:38:08.018Z,101408.56
2022-11-01T13:40:42.079Z,101412.41
2022-11-01T13:43:13.544Z,101408.81
2022-11-01T13:46:08.797Z,101421.19
2022-11-01T13:48:53.826Z,101420.06
2022-11-01T13:51:36.697Z,101425.97
2022-11-01T13:54:12.167Z,101419.56
2022-11-01T13:56:43.800Z,101418.06
2022-11-01T13:59:15.286Z,101423.56
2022-11-01T14:01:43.220Z,101427.19
2022-11-01T14:04:47.858Z,101433.69
2022-11-01T14:07:17.400Z,101426.13
2022-11-01T14:09:50.566Z,101430.75
2022-11-01T14:12:33.376Z,101437.16
2022-11-01T14:15:22.307Z,101431.09
2022-11-01T14:18:04.066Z,101444.75
2022-11-01T14:20:58.933Z,101439.72
2022-11-01T14:24:03.353Z,101440.56
2022-11-01T14:26:47.709Z,101445.66
2022-11-01T14:29:16.076Z,101444.25
2022-11-01T14:31:47.099Z,101433.97
2022-11-01T14:34:25.487Z,101431.59
2022-11-01T14:36:55.037Z,101436.19
2022-11-01T14:39:31.405Z,101446.47
2022-11-01T14:42:03.073Z,101432.66
2022-11-01T14:44:35.556Z,101451.16
2022-11-01T14:47:09.654Z,101445.91
2022-11-01T14:49:43.723Z,101447.22
2022-11-01T14:52:17.053Z,101453.56
2022-11-01T14:54:51.228Z,101443.66
2022-11-01T14:57:28.341Z,101436.41
2022-11-01T14:59:58.123Z,101435.84
2022-11-01T15:02:27.627Z,101424.66
2022-11-01T15:04:59.418Z,101440.06
2022-11-01T15:07:31.328Z,101438.75
2022-11-01T15:10:01.311Z,101427.13
2022-11-01T15:12:34.517Z,101430.84
2022-11-01T15:15:03.090Z,101420.06
2022-11-01T15:17:35.296Z,101414.47
2022-11-01T15:20:13.046Z,101428.13
2022-11-01T15:22:42.953Z,101417.28
2022-11-01T15:25:21.498Z,101440.22
2022-11-01T15:27:51.707Z,101428.97
2022-11-01T15:30:25.228Z,101422.38
2022-11-01T15:32:54.881Z,101434.56
2022-11-01T15:35:25.583Z,101427.97
2022-11-01T15:37:55.199Z,101425.16
2022-11-01T15:40:29.237Z,101422.69
2022-11-01T15:42:58.943Z,101426.66
2022-11-01T15:45:30.658Z,101420.41
2022-11-01T15:48:01.496Z,101425.59
2022-11-01T15:50:38.392Z,101436.63
2022-11-01T15:53:11.083Z,101435.78
2022-11-01T15:55:43.719Z,101424.84
2022-11-01T15:58:18.683Z,101432.66
2022-11-01T16:00:49.036Z,101429.72
2022-11-01T16:03:22.097Z,101428.16
2022-11-01T16:05:56.848Z,101425.59
2022-11-01T16:08:29.279Z,101429.78
2022-11-01T16:10:57.436Z,101422.19
2022-11-01T16:13:26.641Z,101428.28
2022-11-01T16:16:03.003Z,101439.81
2022-11-01T16:18:34.606Z,101440.47
2022-11-01T16:21:04.143Z,101442.38
2022-11-01T16:23:32.412Z,101438.75
2022-11-01T16:26:08.505Z,101434.81
2022-11-01T16:28:43.229Z,101440.47
2022-11-01T16:31:30.802Z,101454.53
2022-11-01T16:33:58.829Z,101452.72
2022-11-01T16:36:35.683Z,101455.72
2022-11-01T16:39:03.598Z,101449.72
2022-11-01T16:41:37.873Z,101462.66
2022-11-01T16:44:15.830Z,101455.78
2022-11-01T16:46:44.260Z,101464.13
2022-11-01T16:49:21.065Z,101464.56
2022-11-01T16:51:48.784Z,101464.81
2022-11-01T16:54:16.473Z,101463.00
2022-11-01T16:56:47.972Z,101458.06
2022-11-01T16:59:38.120Z,101458.97
2022-11-01T17:02:16.697Z,101458.00
2022-11-01T17:04:46.160Z,101462.50
2022-11-01T17:07:13.944Z,101447.44
2022-11-01T17:09:41.797Z,101464.63
2022-11-01T17:12:11.374Z,101461.50
2022-11-01T17:17:17.072Z,101462.75
2022-11-01T17:19:47.581Z,101465.63
2022-11-01T17:22:20.708Z,101462.81
2022-11-01T17:24:49.064Z,101461.41
2022-11-01T17:27:18.602Z,101460.34
2022-11-01T17:29:47.659Z,101457.88
2022-11-01T17:32:15.366Z,101462.50
2022-11-01T17:34:42.983Z,101458.38
2022-11-01T17:37:16.962Z,101450.97
2022-11-01T17:39:44.753Z,101455.50
2022-11-01T17:42:12.492Z,101462.25
2022-11-01T17:44:40.149Z,101460.69
2022-11-01T17:47:09.916Z,101454.34
2022-11-01T17:49:37.576Z,101453.28
2022-11-01T17:52:05.541Z,101460.03
2022-11-01T17:54:33.442Z,101461.09
2022-11-01T17:57:01.172Z,101462.72
2022-11-01T17:59:28.824Z,101462.25
2022-11-01T18:01:56.637Z,101470.13
2022-11-01T18:04:25.866Z,101471.53
2022-11-01T18:06:53.578Z,101463.97
2022-11-01T18:09:24.544Z,101467.78
2022-11-01T18:12:00.568Z,101455.09
2022-11-01T18:14:43.794Z,101460.19
2022-11-01T18:17:28.566Z,101459.03
2022-11-01T18:20:06.705Z,101453.84
2022-11-01T18:22:44.843Z,101453.28
2022-11-01T18:25:25.360Z,101458.22
2022-11-01T18:27:56.272Z,101453.88
2022-11-01T18:30:24.361Z,101451.06
2022-11-01T18:32:56.335Z,101462.13
2022-11-01T18:35:32.696Z,101464.13
2022-11-01T18:38:23.506Z,101459.69
2022-11-01T18:41:00.344Z,101459.13
2022-11-01T18:43:30.143Z,101469.41
2022-11-01T18:46:23.839Z,101456.41
2022-11-01T18:48:45.583Z,101463.16
2022-11-01T18:51:21.477Z,101461.75
2022-11-01T18:53:51.862Z,101457.88
2022-11-01T18:56:22.161Z,101457.31
2022-11-01T18:58:52.311Z,101463.81
2022-11-01T19:01:21.605Z,101455.66
2022-11-01T19:03:59.903Z,101459.44
2022-11-01T19:06:29.818Z,101461.59
2022-11-01T19:08:59.424Z,101455.34
2022-11-01T19:11:28.304Z,101459.53
2022-11-01T19:13:59.264Z,101468.41
2022-11-01T19:16:27.184Z,101464.63
2022-11-01T19:18:54.908Z,101467.34
2022-11-01T19:21:25.174Z,101477.47
2022-11-01T19:23:55.753Z,101477.88
2022-11-01T19:26:31.870Z,101471.28
2022-11-01T19:28:59.561Z,101476.38
2022-11-01T19:31:30.496Z,101465.75
2022-11-01T19:34:00.444Z,101458.69
2022-11-01T19:39:23.065Z,101447.84
2022-11-01T19:41:52.205Z,101439.31
2022-11-01T19:44:21.427Z,101438.97
2022-11-01T19:46:52.230Z,101440.03
2022-11-01T19:49:24.722Z,101431.00
2022-11-01T19:52:15.529Z,101434.84
2022-11-01T19:54:48.445Z,101439.47
2022-11-01T19:57:28.856Z,101417.19
2022-11-01T20:00:15.270Z,101437.16
2022-11-01T20:02:43.070Z,101427.53
2022-11-01T20:05:26.705Z,101431.66
2022-11-01T20:08:01.537Z,101432.81
2022-11-01T20:10:30.846Z,101425.66
2022-11-01T20:12:58.515Z,101424.50
2022-11-01T20:15:26.185Z,101420.97
2022-11-01T20:17:53.941Z,101421.22
2022-11-01T20:20:21.635Z,101407.91
2022-11-01T20:22:55.000Z,101412.50
2022-11-01T20:25:35.483Z,101412.75
2022-11-01T20:28:03.416Z,101417.44
2022-11-01T20:30:31.591Z,101414.97
2022-11-01T20:32:59.246Z,101417.91
2022-11-01T20:35:26.921Z,101416.28
2022-11-01T20:37:54.587Z,101420.31
2022-11-01T20:40:24.977Z,101419.47
2022-11-01T20:42:54.382Z,101424.09
2022-11-01T20:45:22.052Z,101419.97
2022-11-01T20:47:49.938Z,101419.38
2022-11-01T20:50:19.333Z,101416.09
2022-11-01T20:52:49.419Z,101414.47
2022-11-01T20:55:17.281Z,101416.59
2022-11-01T20:57:44.975Z,101418.47
2022-11-01T21:00:18.073Z,101422.25
2022-11-01T21:02:45.882Z,101422.50
2022-11-01T21:05:21.949Z,101416.25
2022-11-01T21:07:50.072Z,101420.84
2022-11-01T21:10:32.591Z,101420.03
2022-11-01T21:13:02.202Z,101420.03
2022-11-01T21:15:36.515Z,101415.69
2022-11-01T21:18:33.711Z,101411.00
2022-11-01T21:21:25.050Z,101424.06
2022-11-01T21:23:52.792Z,101421.09
2022-11-01T21:26:22.193Z,101429.00
2022-11-01T21:28:51.654Z,101419.22
2022-11-01T21:31:31.483Z,101423.00
2022-11-01T21:34:02.974Z,101422.16
2022-11-01T21:36:34.795Z,101419.47
2022-11-01T21:39:04.459Z,101415.91
2022-11-01T21:41:39.996Z,101408.28
2022-11-01T21:44:22.501Z,101421.59
2022-11-01T21:46:52.818Z,101418.88
2022-11-01T21:49:30.985Z,101419.94
2022-11-01T21:52:00.573Z,101413.69
2022-11-01T21:54:29.406Z,101413.38
2022-11-01T21:56:57.811Z,101414.75
2022-11-01T21:59:26.092Z,101422.06
2022-11-01T22:01:56.367Z,101416.66
2022-11-01T22:04:28.651Z,101403.34
2022-11-01T22:06:57.224Z,101403.34
2022-11-01T22:09:24.976Z,101406.06
2022-11-01T22:11:52.759Z,101394.38
2022-11-01T22:14:20.532Z,101407.38
2022-11-01T22:16:48.213Z,101391.34
2022-11-01T22:19:17.233Z,101392.16
2022-11-01T22:24:13.565Z,101393.75
2022-11-01T22:26:42.373Z,101385.53
2022-11-01T22:29:10.045Z,101379.75
2022-11-01T22:31:37.713Z,101380.00
2022-11-01T22:34:05.412Z,101371.28
2022-11-01T22:36:36.696Z,101375.91
2022-11-01T22:39:13.919Z,101378.84
2022-11-01T22:41:42.396Z,101387.81
2022-11-01T22:44:14.337Z,101374.50
2022-11-01T22:46:47.852Z,101370.16
2022-11-01T22:49:19.952Z,101363.81
2022-11-01T22:51:51.481Z,101368.50
2022-11-01T22:54:33.096Z,101363.31
2022-11-01T22:57:04.198Z,101358.97
2022-11-01T22:59:35.735Z,101354.59
2022-11-01T23:02:24.789Z,101355.44
2022-11-01T23:04:58.841Z,101352.97
2022-11-01T23:07:34.172Z,101349.84
2022-11-01T23:10:06.106Z,101342.69
2022-11-01T23:12:54.682Z,101363.31
2022-11-01T23:15:28.921Z,101362.75
2022-11-01T23:18:02.994Z,101364.63
2022-11-01T23:20:30.823Z,101368.41
2022-11-01T23:23:00.143Z,101363.22
2022-11-01T23:25:27.908Z,101361.59
2022-11-01T23:27:55.606Z,101362.66
2022-11-01T23:30:23.277Z,101371.59
2022-11-01T23:32:50.924Z,101366.66
2022-11-01T23:35:21.554Z,101366.66
2022-11-01T23:37:50.740Z,101368.56
2022-11-01T23:40:22.212Z,101365.03
2022-11-01T23:42:50.312Z,101360.66
2022-11-01T23:45:26.249Z,101350.31
2022-11-01T23:47:54.032Z,101353.59
2022-11-01T23:50:26.702Z,101347.13
2022-11-01T23:52:57.223Z,101351.16
2022-11-01T23:55:29.513Z,101351.97
2022-11-01T23:57:59.797Z,101359.28
